sensor_id;sensor_type;location;lat;lon;timestamp;temperature;humidity
73643;DHT22;61938;48.652;9.292;2023-09-12T00:00:08;17.70;99.90
73643;DHT22;61938;48.652;9.292;2023-09-12T00:02:35;17.70;99.90
73643;DHT22;61938;48.652;9.292;2023-09-12T00:05:00;17.70;99.90
73643;DHT22;61938;48.652;9.292;2023-09-12T00:07:26;17.70;99.90
73643;DHT22;61938;48.652;9.292;2023-09-12T00:09:51;17.60;99.90
73643;DHT22;61938;48.652;9.292;2023-09-12T00:12:17;17.60;99.90
73643;DHT22;61938;48.652;9.292;2023-09-12T00:14:42;17.50;99.90
73643;DHT22;61938;48.652;9.292;2023-09-12T00:17:09;17.50;99.90
73643;DHT22;61938;48.652;9.292;2023-09-12T00:19:34;17.40;99.90
73643;DHT22;61938;48.652;9.292;2023-09-12T00:22:00;17.40;99.90
73643;DHT22;61938;48.652;9.292;2023-09-12T00:24:26;17.40;99.90
73643;DHT22;61938;48.652;9.292;2023-09-12T00:26:51;17.40;99.90
73643;DHT22;61938;48.652;9.292;2023-09-12T00:29:17;17.40;99.90
73643;DHT22;61938;48.652;9.292;2023-09-12T00:31:42;17.30;99.90
73643;DHT22;61938;48.652;9.292;2023-09-12T00:34:08;17.40;99.90
73643;DHT22;61938;48.652;9.292;2023-09-12T00:36:33;17.30;99.90
73643;DHT22;61938;48.652;9.292;2023-09-12T00:38:59;17.20;99.90
73643;DHT22;61938;48.652;9.292;2023-09-12T00:41:24;17.20;99.90
73643;DHT22;61938;48.652;9.292;2023-09-12T00:43:49;17.20;99.90
73643;DHT22;61938;48.652;9.292;2023-09-12T00:46:19;17.10;99.90
73643;DHT22;61938;48.652;9.292;2023-09-12T00:48:45;17.00;99.90
73643;DHT22;61938;48.652;9.292;2023-09-12T00:51:13;17.00;99.90
73643;DHT22;61938;48.652;9.292;2023-09-12T00:53:39;17.00;99.90
73643;DHT22;61938;48.652;9.292;2023-09-12T00:56:06;16.90;99.90
73643;DHT22;61938;48.652;9.292;2023-09-12T00:58:32;16.90;99.90
73643;DHT22;61938;48.652;9.292;2023-09-12T01:00:58;16.90;99.90
73643;DHT22;61938;48.652;9.292;2023-09-12T01:03:24;16.90;99.90
73643;DHT22;61938;48.652;9.292;2023-09-12T01:05:50;16.90;99.90
73643;DHT22;61938;48.652;9.292;2023-09-12T01:08:17;16.90;99.90
73643;DHT22;61938;48.652;9.292;2023-09-12T01:10:43;17.00;99.90
73643;DHT22;61938;48.652;9.292;2023-09-12T01:13:12;16.90;99.90
73643;DHT22;61938;48.652;9.292;2023-09-12T01:15:38;16.90;99.90
73643;DHT22;61938;48.652;9.292;2023-09-12T01:18:04;16.90;99.90
73643;DHT22;61938;48.652;9.292;2023-09-12T01:20:32;16.80;99.90
73643;DHT22;61938;48.652;9.292;2023-09-12T01:23:40;16.80;99.90
73643;DHT22;61938;48.652;9.292;2023-09-12T01:28:51;16.80;99.90
73643;DHT22;61938;48.652;9.292;2023-09-12T01:31:19;16.90;99.90
73643;DHT22;61938;48.652;9.292;2023-09-12T01:33:45;16.80;99.90
73643;DHT22;61938;48.652;9.292;2023-09-12T01:36:10;16.90;99.90
73643;DHT22;61938;48.652;9.292;2023-09-12T01:38:36;16.90;99.90
73643;DHT22;61938;48.652;9.292;2023-09-12T01:41:02;16.80;99.90
73643;DHT22;61938;48.652;9.292;2023-09-12T01:43:28;16.80;99.90
73643;DHT22;61938;48.652;9.292;2023-09-12T01:45:57;16.80;99.90
73643;DHT22;61938;48.652;9.292;2023-09-12T01:48:28;16.80;99.90
73643;DHT22;61938;48.652;9.292;2023-09-12T01:50:59;16.70;99.90
73643;DHT22;61938;48.652;9.292;2023-09-12T01:53:25;16.60;99.90
73643;DHT22;61938;48.652;9.292;2023-09-12T01:55:51;16.60;99.90
73643;DHT22;61938;48.652;9.292;2023-09-12T01:58:17;16.50;99.90
73643;DHT22;61938;48.652;9.292;2023-09-12T02:00:43;16.50;99.90
73643;DHT22;61938;48.652;9.292;2023-09-12T02:03:08;16.40;99.90
73643;DHT22;61938;48.652;9.292;2023-09-12T02:05:34;16.40;99.90
73643;DHT22;61938;48.652;9.292;2023-09-12T02:08:00;16.40;99.90
73643;DHT22;61938;48.652;9.292;2023-09-12T02:10:27;16.30;99.90
73643;DHT22;61938;48.652;9.292;2023-09-12T02:12:52;16.30;99.90
73643;DHT22;61938;48.652;9.292;2023-09-12T02:15:18;16.30;99.90
73643;DHT22;61938;48.652;9.292;2023-09-12T02:17:43;16.20;99.90
73643;DHT22;61938;48.652;9.292;2023-09-12T02:20:09;16.20;99.90
73643;DHT22;61938;48.652;9.292;2023-09-12T02:22:35;16.20;99.90
73643;DHT22;61938;48.652;9.292;2023-09-12T02:25:02;16.20;99.90
73643;DHT22;61938;48.652;9.292;2023-09-12T02:27:28;16.10;99.90
73643;DHT22;61938;48.652;9.292;2023-09-12T02:29:53;16.10;99.90
73643;DHT22;61938;48.652;9.292;2023-09-12T02:32:20;16.20;99.90
73643;DHT22;61938;48.652;9.292;2023-09-12T02:34:46;16.30;99.90
73643;DHT22;61938;48.652;9.292;2023-09-12T02:37:11;16.30;99.90
73643;DHT22;61938;48.652;9.292;2023-09-12T02:39:37;16.30;99.90
73643;DHT22;61938;48.652;9.292;2023-09-12T02:42:02;16.40;99.90
73643;DHT22;61938;48.652;9.292;2023-09-12T02:44:28;16.40;99.90
73643;DHT22;61938;48.652;9.292;2023-09-12T02:46:53;16.40;99.90
73643;DHT22;61938;48.652;9.292;2023-09-12T02:49:19;16.40;99.90
73643;DHT22;61938;48.652;9.292;2023-09-12T02:51:45;16.30;99.90
73643;DHT22;61938;48.652;9.292;2023-09-12T02:54:11;16.30;99.90
73643;DHT22;61938;48.652;9.292;2023-09-12T02:56:36;16.30;99.90
73643;DHT22;61938;48.652;9.292;2023-09-12T02:59:02;16.30;99.90
73643;DHT22;61938;48.652;9.292;2023-09-12T03:01:27;16.30;99.90
73643;DHT22;61938;48.652;9.292;2023-09-12T03:03:53;16.30;99.90
73643;DHT22;61938;48.652;9.292;2023-09-12T03:06:19;16.20;99.90
73643;DHT22;61938;48.652;9.292;2023-09-12T03:08:46;16.30;99.90
73643;DHT22;61938;48.652;9.292;2023-09-12T03:11:11;16.30;99.90
73643;DHT22;61938;48.652;9.292;2023-09-12T03:13:38;16.30;99.90
73643;DHT22;61938;48.652;9.292;2023-09-12T03:16:04;16.20;99.90
73643;DHT22;61938;48.652;9.292;2023-09-12T03:18:30;16.20;99.90
73643;DHT22;61938;48.652;9.292;2023-09-12T03:20:55;16.30;99.90
73643;DHT22;61938;48.652;9.292;2023-09-12T03:23:21;16.30;99.90
73643;DHT22;61938;48.652;9.292;2023-09-12T03:25:47;16.30;99.90
73643;DHT22;61938;48.652;9.292;2023-09-12T03:28:12;16.30;99.90
73643;DHT22;61938;48.652;9.292;2023-09-12T03:30:38;16.30;99.90
73643;DHT22;61938;48.652;9.292;2023-09-12T03:33:05;16.30;99.90
73643;DHT22;61938;48.652;9.292;2023-09-12T03:35:32;16.20;99.90
73643;DHT22;61938;48.652;9.292;2023-09-12T03:37:58;16.10;99.90
73643;DHT22;61938;48.652;9.292;2023-09-12T03:40:24;16.10;99.90
73643;DHT22;61938;48.652;9.292;2023-09-12T03:42:49;16.10;99.90
73643;DHT22;61938;48.652;9.292;2023-09-12T03:45:15;16.10;99.90
73643;DHT22;61938;48.652;9.292;2023-09-12T03:47:41;16.00;99.90
73643;DHT22;61938;48.652;9.292;2023-09-12T03:50:06;16.00;99.90
73643;DHT22;61938;48.652;9.292;2023-09-12T03:52:32;16.00;99.90
73643;DHT22;61938;48.652;9.292;2023-09-12T03:54:57;15.90;99.90
73643;DHT22;61938;48.652;9.292;2023-09-12T03:57:26;15.90;99.90
73643;DHT22;61938;48.652;9.292;2023-09-12T03:59:51;15.90;99.90
73643;DHT22;61938;48.652;9.292;2023-09-12T04:02:17;15.90;99.90
73643;DHT22;61938;48.652;9.292;2023-09-12T04:04:43;15.90;99.90
73643;DHT22;61938;48.652;9.292;2023-09-12T04:07:08;15.80;99.90
73643;DHT22;61938;48.652;9.292;2023-09-12T04:09:34;15.80;99.90
73643;DHT22;61938;48.652;9.292;2023-09-12T04:11:59;15.80;99.90
73643;DHT22;61938;48.652;9.292;2023-09-12T04:14:25;15.70;99.90
73643;DHT22;61938;48.652;9.292;2023-09-12T04:16:50;15.70;99.90
73643;DHT22;61938;48.652;9.292;2023-09-12T04:19:16;15.70;99.90
73643;DHT22;61938;48.652;9.292;2023-09-12T04:21:41;15.70;99.90
73643;DHT22;61938;48.652;9.292;2023-09-12T04:24:07;15.60;99.90
73643;DHT22;61938;48.652;9.292;2023-09-12T04:26:34;15.60;99.90
73643;DHT22;61938;48.652;9.292;2023-09-12T04:28:59;15.60;99.90
73643;DHT22;61938;48.652;9.292;2023-09-12T04:31:25;15.70;99.90
73643;DHT22;61938;48.652;9.292;2023-09-12T04:33:53;15.70;99.90
73643;DHT22;61938;48.652;9.292;2023-09-12T04:36:19;15.70;99.90
73643;DHT22;61938;48.652;9.292;2023-09-12T04:38:45;15.60;99.90
73643;DHT22;61938;48.652;9.292;2023-09-12T04:41:12;15.60;99.90
73643;DHT22;61938;48.652;9.292;2023-09-12T04:43:40;15.60;99.90
73643;DHT22;61938;48.652;9.292;2023-09-12T04:46:06;15.60;99.90
73643;DHT22;61938;48.652;9.292;2023-09-12T04:48:33;15.50;99.90
73643;DHT22;61938;48.652;9.292;2023-09-12T04:50:58;15.60;99.90
73643;DHT22;61938;48.652;9.292;2023-09-12T04:53:24;15.70;99.90
73643;DHT22;61938;48.652;9.292;2023-09-12T04:55:52;15.60;99.90
73643;DHT22;61938;48.652;9.292;2023-09-12T04:58:18;15.70;99.90
73643;DHT22;61938;48.652;9.292;2023-09-12T05:00:45;15.60;99.90
73643;DHT22;61938;48.652;9.292;2023-09-12T05:03:10;15.70;99.90
73643;DHT22;61938;48.652;9.292;2023-09-12T05:05:36;15.60;99.90
73643;DHT22;61938;48.652;9.292;2023-09-12T05:08:02;15.70;99.90
73643;DHT22;61938;48.652;9.292;2023-09-12T05:10:27;15.70;99.90
73643;DHT22;61938;48.652;9.292;2023-09-12T05:12:53;15.60;99.90
73643;DHT22;61938;48.652;9.292;2023-09-12T05:15:18;15.60;99.90
73643;DHT22;61938;48.652;9.292;2023-09-12T05:17:44;15.70;99.90
73643;DHT22;61938;48.652;9.292;2023-09-12T05:20:10;15.70;99.90
73643;DHT22;61938;48.652;9.292;2023-09-12T05:22:35;15.70;99.90
73643;DHT22;61938;48.652;9.292;2023-09-12T05:25:01;15.70;99.90
73643;DHT22;61938;48.652;9.292;2023-09-12T05:27:26;15.80;99.90
73643;DHT22;61938;48.652;9.292;2023-09-12T05:29:52;15.80;99.90
73643;DHT22;61938;48.652;9.292;2023-09-12T05:32:17;15.80;99.90
73643;DHT22;61938;48.652;9.292;2023-09-12T05:34:43;15.90;99.90
73643;DHT22;61938;48.652;9.292;2023-09-12T05:37:10;16.00;99.90
73643;DHT22;61938;48.652;9.292;2023-09-12T05:39:36;16.10;99.90
73643;DHT22;61938;48.652;9.292;2023-09-12T05:42:01;16.20;99.90
73643;DHT22;61938;48.652;9.292;2023-09-12T05:44:27;16.50;99.90
73643;DHT22;61938;48.652;9.292;2023-09-12T05:46:52;16.70;99.90
73643;DHT22;61938;48.652;9.292;2023-09-12T05:49:19;16.80;99.90
73643;DHT22;61938;48.652;9.292;2023-09-12T05:51:45;16.90;99.90
73643;DHT22;61938;48.652;9.292;2023-09-12T05:54:10;17.00;99.90
73643;DHT22;61938;48.652;9.292;2023-09-12T05:56:39;17.20;99.90
73643;DHT22;61938;48.652;9.292;2023-09-12T05:59:05;17.20;99.90
73643;DHT22;61938;48.652;9.292;2023-09-12T06:01:31;17.10;99.90
73643;DHT22;61938;48.652;9.292;2023-09-12T06:03:56;17.10;99.90
73643;DHT22;61938;48.652;9.292;2023-09-12T06:06:22;17.10;99.90
73643;DHT22;61938;48.652;9.292;2023-09-12T06:08:48;17.10;99.90
73643;DHT22;61938;48.652;9.292;2023-09-12T06:11:13;17.00;99.90
73643;DHT22;61938;48.652;9.292;2023-09-12T06:13:39;17.00;99.90
73643;DHT22;61938;48.652;9.292;2023-09-12T06:16:05;17.10;99.90
73643;DHT22;61938;48.652;9.292;2023-09-12T06:18:31;17.30;99.90
73643;DHT22;61938;48.652;9.292;2023-09-12T06:20:58;17.50;99.90
73643;DHT22;61938;48.652;9.292;2023-09-12T06:23:24;17.80;99.90
73643;DHT22;61938;48.652;9.292;2023-09-12T06:25:49;17.90;99.90
73643;DHT22;61938;48.652;9.292;2023-09-12T06:28:27;17.90;99.90
73643;DHT22;61938;48.652;9.292;2023-09-12T06:30:53;18.00;99.90
73643;DHT22;61938;48.652;9.292;2023-09-12T06:33:19;18.00;99.90
73643;DHT22;61938;48.652;9.292;2023-09-12T06:35:50;18.00;99.90
73643;DHT22;61938;48.652;9.292;2023-09-12T06:38:18;18.10;99.90
73643;DHT22;61938;48.652;9.292;2023-09-12T06:40:44;18.20;99.90
73643;DHT22;61938;48.652;9.292;2023-09-12T06:43:10;18.30;99.90
73643;DHT22;61938;48.652;9.292;2023-09-12T06:45:35;18.40;99.90
73643;DHT22;61938;48.652;9.292;2023-09-12T06:48:03;18.60;99.90
73643;DHT22;61938;48.652;9.292;2023-09-12T06:50:29;18.60;99.90
73643;DHT22;61938;48.652;9.292;2023-09-12T06:52:54;18.70;99.90
73643;DHT22;61938;48.652;9.292;2023-09-12T06:55:20;18.80;99.90
73643;DHT22;61938;48.652;9.292;2023-09-12T06:57:45;19.00;99.90
73643;DHT22;61938;48.652;9.292;2023-09-12T07:00:12;18.80;99.90
73643;DHT22;61938;48.652;9.292;2023-09-12T07:02:38;19.00;99.90
73643;DHT22;61938;48.652;9.292;2023-09-12T07:05:04;19.00;99.90
73643;DHT22;61938;48.652;9.292;2023-09-12T07:07:30;19.10;99.90
73643;DHT22;61938;48.652;9.292;2023-09-12T07:09:56;19.10;99.90
73643;DHT22;61938;48.652;9.292;2023-09-12T07:12:22;19.10;99.90
73643;DHT22;61938;48.652;9.292;2023-09-12T07:14:47;19.20;99.90
73643;DHT22;61938;48.652;9.292;2023-09-12T07:17:13;19.20;99.90
73643;DHT22;61938;48.652;9.292;2023-09-12T07:19:38;19.30;99.90
73643;DHT22;61938;48.652;9.292;2023-09-12T07:22:04;19.30;99.90
73643;DHT22;61938;48.652;9.292;2023-09-12T07:24:29;19.30;99.90
73643;DHT22;61938;48.652;9.292;2023-09-12T07:26:55;19.30;99.90
73643;DHT22;61938;48.652;9.292;2023-09-12T07:29:20;19.10;99.90
73643;DHT22;61938;48.652;9.292;2023-09-12T07:31:46;19.10;99.90
73643;DHT22;61938;48.652;9.292;2023-09-12T07:34:11;19.20;99.90
73643;DHT22;61938;48.652;9.292;2023-09-12T07:36:40;19.10;99.90
73643;DHT22;61938;48.652;9.292;2023-09-12T07:39:05;19.20;99.90
73643;DHT22;61938;48.652;9.292;2023-09-12T07:41:31;19.30;99.90
73643;DHT22;61938;48.652;9.292;2023-09-12T07:43:57;19.30;99.90
73643;DHT22;61938;48.652;9.292;2023-09-12T07:46:22;19.40;99.90
73643;DHT22;61938;48.652;9.292;2023-09-12T07:48:48;19.60;99.90
73643;DHT22;61938;48.652;9.292;2023-09-12T07:51:15;19.70;99.90
73643;DHT22;61938;48.652;9.292;2023-09-12T07:53:41;19.80;99.90
73643;DHT22;61938;48.652;9.292;2023-09-12T07:56:08;19.90;99.90
73643;DHT22;61938;48.652;9.292;2023-09-12T07:58:34;20.00;99.90
73643;DHT22;61938;48.652;9.292;2023-09-12T08:01:07;20.20;99.90
73643;DHT22;61938;48.652;9.292;2023-09-12T08:03:34;20.60;99.90
73643;DHT22;61938;48.652;9.292;2023-09-12T08:06:00;21.10;99.90
73643;DHT22;61938;48.652;9.292;2023-09-12T08:08:26;21.50;99.90
73643;DHT22;61938;48.652;9.292;2023-09-12T08:10:51;22.10;99.90
73643;DHT22;61938;48.652;9.292;2023-09-12T08:13:17;22.20;99.90
73643;DHT22;61938;48.652;9.292;2023-09-12T08:15:42;22.00;99.90
73643;DHT22;61938;48.652;9.292;2023-09-12T08:18:08;21.90;99.90
73643;DHT22;61938;48.652;9.292;2023-09-12T08:20:33;22.20;99.90
73643;DHT22;61938;48.652;9.292;2023-09-12T08:22:59;22.30;99.90
73643;DHT22;61938;48.652;9.292;2023-09-12T08:25:24;22.40;99.90
73643;DHT22;61938;48.652;9.292;2023-09-12T08:27:50;22.40;99.90
73643;DHT22;61938;48.652;9.292;2023-09-12T08:30:16;22.60;99.90
73643;DHT22;61938;48.652;9.292;2023-09-12T08:32:42;22.80;99.90
73643;DHT22;61938;48.652;9.292;2023-09-12T08:35:10;22.80;99.90
73643;DHT22;61938;48.652;9.292;2023-09-12T08:37:37;23.10;99.90
73643;DHT22;61938;48.652;9.292;2023-09-12T08:40:03;23.20;99.90
73643;DHT22;61938;48.652;9.292;2023-09-12T08:42:32;23.50;99.90
73643;DHT22;61938;48.652;9.292;2023-09-12T08:45:02;23.80;99.90
73643;DHT22;61938;48.652;9.292;2023-09-12T08:47:29;24.10;99.90
73643;DHT22;61938;48.652;9.292;2023-09-12T08:49:56;24.20;99.90
73643;DHT22;61938;48.652;9.292;2023-09-12T08:52:22;24.40;99.90
73643;DHT22;61938;48.652;9.292;2023-09-12T08:54:47;24.20;99.90
73643;DHT22;61938;48.652;9.292;2023-09-12T08:57:13;24.30;99.90
73643;DHT22;61938;48.652;9.292;2023-09-12T08:59:40;24.60;99.90
73643;DHT22;61938;48.652;9.292;2023-09-12T09:02:09;24.70;99.90
73643;DHT22;61938;48.652;9.292;2023-09-12T09:04:35;24.90;99.90
73643;DHT22;61938;48.652;9.292;2023-09-12T09:07:03;25.10;99.90
73643;DHT22;61938;48.652;9.292;2023-09-12T09:09:29;25.30;99.90
73643;DHT22;61938;48.652;9.292;2023-09-12T09:11:55;25.90;99.90
73643;DHT22;61938;48.652;9.292;2023-09-12T09:14:21;25.70;99.90
73643;DHT22;61938;48.652;9.292;2023-09-12T09:16:46;26.10;99.90
73643;DHT22;61938;48.652;9.292;2023-09-12T09:19:12;26.30;99.90
73643;DHT22;61938;48.652;9.292;2023-09-12T09:21:38;26.50;99.90
73643;DHT22;61938;48.652;9.292;2023-09-12T09:24:11;26.60;99.90
73643;DHT22;61938;48.652;9.292;2023-09-12T09:26:47;26.60;99.90
73643;DHT22;61938;48.652;9.292;2023-09-12T09:29:15;27.10;99.90
73643;DHT22;61938;48.652;9.292;2023-09-12T09:31:42;26.90;99.90
73643;DHT22;61938;48.652;9.292;2023-09-12T09:34:15;27.10;99.90
73643;DHT22;61938;48.652;9.292;2023-09-12T09:36:42;26.80;99.90
73643;DHT22;61938;48.652;9.292;2023-09-12T09:39:08;27.00;99.90
73643;DHT22;61938;48.652;9.292;2023-09-12T09:41:34;27.10;99.90
73643;DHT22;61938;48.652;9.292;2023-09-12T09:44:00;27.20;99.90
73643;DHT22;61938;48.652;9.292;2023-09-12T09:46:26;27.40;99.90
73643;DHT22;61938;48.652;9.292;2023-09-12T09:48:52;27.50;99.90
73643;DHT22;61938;48.652;9.292;2023-09-12T09:51:18;27.50;99.90
73643;DHT22;61938;48.652;9.292;2023-09-12T09:53:44;27.70;99.90
73643;DHT22;61938;48.652;9.292;2023-09-12T09:56:14;27.80;99.90
73643;DHT22;61938;48.652;9.292;2023-09-12T09:58:54;28.10;99.90
73643;DHT22;61938;48.652;9.292;2023-09-12T10:01:28;28.60;99.90
73643;DHT22;61938;48.652;9.292;2023-09-12T10:03:58;28.80;99.90
73643;DHT22;61938;48.652;9.292;2023-09-12T10:06:25;29.00;99.90
73643;DHT22;61938;48.652;9.292;2023-09-12T10:08:53;29.30;99.90
73643;DHT22;61938;48.652;9.292;2023-09-12T10:11:22;29.70;99.90
73643;DHT22;61938;48.652;9.292;2023-09-12T10:13:56;29.80;99.90
73643;DHT22;61938;48.652;9.292;2023-09-12T10:16:24;30.10;99.90
73643;DHT22;61938;48.652;9.292;2023-09-12T10:19:11;30.00;99.90
73643;DHT22;61938;48.652;9.292;2023-09-12T10:24:29;30.50;99.90
73643;DHT22;61938;48.652;9.292;2023-09-12T10:26:56;31.00;99.90
73643;DHT22;61938;48.652;9.292;2023-09-12T10:29:22;30.70;99.90
73643;DHT22;61938;48.652;9.292;2023-09-12T10:31:48;30.30;99.90
73643;DHT22;61938;48.652;9.292;2023-09-12T10:34:15;30.10;99.90
73643;DHT22;61938;48.652;9.292;2023-09-12T10:36:41;30.10;99.90
73643;DHT22;61938;48.652;9.292;2023-09-12T10:39:08;30.40;99.90
73643;DHT22;61938;48.652;9.292;2023-09-12T10:41:37;32.40;99.90
73643;DHT22;61938;48.652;9.292;2023-09-12T10:44:23;30.70;99.90
73643;DHT22;61938;48.652;9.292;2023-09-12T10:46:49;31.00;99.90
73643;DHT22;61938;48.652;9.292;2023-09-12T10:49:17;30.90;99.90
73643;DHT22;61938;48.652;9.292;2023-09-12T10:51:44;31.20;99.90
73643;DHT22;61938;48.652;9.292;2023-09-12T10:54:15;31.40;99.90
73643;DHT22;61938;48.652;9.292;2023-09-12T10:56:41;33.00;99.90
73643;DHT22;61938;48.652;9.292;2023-09-12T11:01:36;31.50;99.90
73643;DHT22;61938;48.652;9.292;2023-09-12T11:06:53;31.60;99.90
73643;DHT22;61938;48.652;9.292;2023-09-12T11:09:23;31.80;99.90
73643;DHT22;61938;48.652;9.292;2023-09-12T11:12:01;31.90;99.00
73643;DHT22;61938;48.652;9.292;2023-09-12T11:14:27;32.00;99.90
73643;DHT22;61938;48.652;9.292;2023-09-12T11:17:20;32.10;99.90
73643;DHT22;61938;48.652;9.292;2023-09-12T11:19:48;32.30;97.00
73643;DHT22;61938;48.652;9.292;2023-09-12T11:22:30;32.40;98.00
73643;DHT22;61938;48.652;9.292;2023-09-12T11:25:03;32.40;97.50
73643;DHT22;61938;48.652;9.292;2023-09-12T11:27:32;32.50;96.70
73643;DHT22;61938;48.652;9.292;2023-09-12T11:30:09;32.80;96.70
73643;DHT22;61938;48.652;9.292;2023-09-12T11:32:36;32.90;95.70
73643;DHT22;61938;48.652;9.292;2023-09-12T11:35:06;33.00;94.10
73643;DHT22;61938;48.652;9.292;2023-09-12T11:37:33;33.10;94.90
73643;DHT22;61938;48.652;9.292;2023-09-12T11:39:58;33.10;94.30
73643;DHT22;61938;48.652;9.292;2023-09-12T11:42:24;33.30;93.20
73643;DHT22;61938;48.652;9.292;2023-09-12T11:44:53;33.40;91.40
73643;DHT22;61938;48.652;9.292;2023-09-12T11:47:19;33.70;92.90
73643;DHT22;61938;48.652;9.292;2023-09-12T11:49:46;33.60;86.60
73643;DHT22;61938;48.652;9.292;2023-09-12T11:52:15;33.80;91.60
73643;DHT22;61938;48.652;9.292;2023-09-12T11:54:45;33.80;91.10
73643;DHT22;61938;48.652;9.292;2023-09-12T11:57:12;34.10;90.40
73643;DHT22;61938;48.652;9.292;2023-09-12T11:59:40;34.10;87.50
73643;DHT22;61938;48.652;9.292;2023-09-12T12:02:09;33.90;82.80
73643;DHT22;61938;48.652;9.292;2023-09-12T12:04:35;34.10;87.10
73643;DHT22;61938;48.652;9.292;2023-09-12T12:07:02;34.10;84.70
73643;DHT22;61938;48.652;9.292;2023-09-12T12:09:29;34.10;84.00
73643;DHT22;61938;48.652;9.292;2023-09-12T12:11:55;34.20;88.70
73643;DHT22;61938;48.652;9.292;2023-09-12T12:14:25;34.10;79.80
73643;DHT22;61938;48.652;9.292;2023-09-12T12:16:52;34.00;82.10
73643;DHT22;61938;48.652;9.292;2023-09-12T12:19:18;34.10;85.00
73643;DHT22;61938;48.652;9.292;2023-09-12T12:21:45;34.00;88.80
73643;DHT22;61938;48.652;9.292;2023-09-12T12:24:13;34.00;81.60
73643;DHT22;61938;48.652;9.292;2023-09-12T12:26:43;34.00;81.70
73643;DHT22;61938;48.652;9.292;2023-09-12T12:29:10;34.30;83.30
73643;DHT22;61938;48.652;9.292;2023-09-12T12:31:39;34.40;80.10
73643;DHT22;61938;48.652;9.292;2023-09-12T12:34:05;34.30;79.80
73643;DHT22;61938;48.652;9.292;2023-09-12T12:36:31;34.30;80.30
73643;DHT22;61938;48.652;9.292;2023-09-12T12:38:56;34.10;77.60
73643;DHT22;61938;48.652;9.292;2023-09-12T12:41:27;33.90;80.40
73643;DHT22;61938;48.652;9.292;2023-09-12T12:43:53;33.80;78.70
73643;DHT22;61938;48.652;9.292;2023-09-12T12:46:24;34.00;79.20
73643;DHT22;61938;48.652;9.292;2023-09-12T12:48:50;33.70;82.00
73643;DHT22;61938;48.652;9.292;2023-09-12T12:51:21;33.60;77.40
73643;DHT22;61938;48.652;9.292;2023-09-12T12:53:55;33.60;80.80
73643;DHT22;61938;48.652;9.292;2023-09-12T12:56:29;33.60;81.70
73643;DHT22;61938;48.652;9.292;2023-09-12T12:58:56;33.50;79.30
73643;DHT22;61938;48.652;9.292;2023-09-12T13:01:23;33.50;83.00
73643;DHT22;61938;48.652;9.292;2023-09-12T13:03:49;33.40;77.70
73643;DHT22;61938;48.652;9.292;2023-09-12T13:06:16;33.40;75.30
73643;DHT22;61938;48.652;9.292;2023-09-12T13:08:44;33.70;76.30
73643;DHT22;61938;48.652;9.292;2023-09-12T13:11:11;33.70;72.20
73643;DHT22;61938;48.652;9.292;2023-09-12T13:13:38;33.70;73.40
73643;DHT22;61938;48.652;9.292;2023-09-12T13:16:04;33.70;75.00
73643;DHT22;61938;48.652;9.292;2023-09-12T13:18:34;33.70;72.90
73643;DHT22;61938;48.652;9.292;2023-09-12T13:21:00;33.80;78.40
73643;DHT22;61938;48.652;9.292;2023-09-12T13:23:26;33.80;76.30
73643;DHT22;61938;48.652;9.292;2023-09-12T13:25:52;33.60;71.40
73643;DHT22;61938;48.652;9.292;2023-09-12T13:28:18;33.40;73.00
73643;DHT22;61938;48.652;9.292;2023-09-12T13:30:43;33.40;72.50
73643;DHT22;61938;48.652;9.292;2023-09-12T13:33:10;33.30;73.90
73643;DHT22;61938;48.652;9.292;2023-09-12T13:35:36;33.30;73.90
73643;DHT22;61938;48.652;9.292;2023-09-12T13:38:02;33.50;76.90
73643;DHT22;61938;48.652;9.292;2023-09-12T13:40:36;33.50;76.20
73643;DHT22;61938;48.652;9.292;2023-09-12T13:43:03;33.20;75.10
73643;DHT22;61938;48.652;9.292;2023-09-12T13:45:28;33.00;76.00
73643;DHT22;61938;48.652;9.292;2023-09-12T13:47:54;33.10;76.30
73643;DHT22;61938;48.652;9.292;2023-09-12T13:50:19;33.00;78.60
73643;DHT22;61938;48.652;9.292;2023-09-12T13:52:45;33.00;76.70
73643;DHT22;61938;48.652;9.292;2023-09-12T13:55:10;32.80;75.10
73643;DHT22;61938;48.652;9.292;2023-09-12T13:57:39;32.80;76.50
73643;DHT22;61938;48.652;9.292;2023-09-12T14:00:05;32.80;72.90
73643;DHT22;61938;48.652;9.292;2023-09-12T14:02:31;33.00;73.70
73643;DHT22;61938;48.652;9.292;2023-09-12T14:04:57;32.80;70.60
73643;DHT22;61938;48.652;9.292;2023-09-12T14:07:23;32.70;69.60
73643;DHT22;61938;48.652;9.292;2023-09-12T14:09:49;32.60;72.50
73643;DHT22;61938;48.652;9.292;2023-09-12T14:12:15;32.50;72.90
73643;DHT22;61938;48.652;9.292;2023-09-12T14:14:40;32.50;71.10
73643;DHT22;61938;48.652;9.292;2023-09-12T14:17:06;32.50;69.70
73643;DHT22;61938;48.652;9.292;2023-09-12T14:19:31;32.30;69.30
73643;DHT22;61938;48.652;9.292;2023-09-12T14:21:57;31.70;72.50
73643;DHT22;61938;48.652;9.292;2023-09-12T14:24:22;31.30;75.80
73643;DHT22;61938;48.652;9.292;2023-09-12T14:26:48;31.10;75.40
73643;DHT22;61938;48.652;9.292;2023-09-12T14:29:14;30.70;79.30
73643;DHT22;61938;48.652;9.292;2023-09-12T14:31:40;30.40;81.20
73643;DHT22;61938;48.652;9.292;2023-09-12T14:34:14;30.30;83.90
73643;DHT22;61938;48.652;9.292;2023-09-12T14:36:40;30.10;84.20
73643;DHT22;61938;48.652;9.292;2023-09-12T14:39:05;30.70;84.70
73643;DHT22;61938;48.652;9.292;2023-09-12T14:41:31;29.90;85.20
73643;DHT22;61938;48.652;9.292;2023-09-12T14:43:57;29.80;86.20
73643;DHT22;61938;48.652;9.292;2023-09-12T14:46:22;29.70;85.40
73643;DHT22;61938;48.652;9.292;2023-09-12T14:48:48;29.50;86.00
73643;DHT22;61938;48.652;9.292;2023-09-12T14:51:13;29.50;86.70
73643;DHT22;61938;48.652;9.292;2023-09-12T14:53:39;29.40;88.00
73643;DHT22;61938;48.652;9.292;2023-09-12T14:56:10;29.20;87.40
73643;DHT22;61938;48.652;9.292;2023-09-12T14:58:35;29.10;88.80
73643;DHT22;61938;48.652;9.292;2023-09-12T15:01:01;29.00;90.20
73643;DHT22;61938;48.652;9.292;2023-09-12T15:03:26;28.90;90.20
73643;DHT22;61938;48.652;9.292;2023-09-12T15:05:51;28.90;90.70
73643;DHT22;61938;48.652;9.292;2023-09-12T15:08:17;28.80;90.70
73643;DHT22;61938;48.652;9.292;2023-09-12T15:10:42;28.70;91.50
73643;DHT22;61938;48.652;9.292;2023-09-12T15:13:08;28.70;91.20
73643;DHT22;61938;48.652;9.292;2023-09-12T15:15:35;28.70;91.50
73643;DHT22;61938;48.652;9.292;2023-09-12T15:18:01;28.60;91.80
73643;DHT22;61938;48.652;9.292;2023-09-12T15:20:27;28.60;91.40
73643;DHT22;61938;48.652;9.292;2023-09-12T15:22:52;28.50;91.30
73643;DHT22;61938;48.652;9.292;2023-09-12T15:25:18;28.50;91.40
73643;DHT22;61938;48.652;9.292;2023-09-12T15:27:43;28.50;92.40
73643;DHT22;61938;48.652;9.292;2023-09-12T15:30:09;28.50;92.50
73643;DHT22;61938;48.652;9.292;2023-09-12T15:32:35;28.40;92.40
73643;DHT22;61938;48.652;9.292;2023-09-12T15:35:00;28.40;91.10
73643;DHT22;61938;48.652;9.292;2023-09-12T15:37:26;28.40;91.90